createdAt,value
2023-02-02T00:01:57.523Z,100.00
2023-02-02T00:04:26.142Z,100.00
2023-02-02T00:06:55.051Z,100.00
2023-02-02T00:09:22.248Z,100.00
2023-02-02T00:11:51.314Z,100.00
2023-02-02T00:14:19.702Z,100.00
2023-02-02T00:16:52.749Z,100.00
2023-02-02T00:19:22.703Z,100.00
2023-02-02T00:21:49.725Z,100.00
2023-02-02T00:24:18.487Z,100.00
2023-02-02T00:27:04.327Z,100.00
2023-02-02T00:29:34.619Z,100.00
2023-02-02T00:32:02.078Z,100.00
2023-02-02T00:39:58.946Z,100.00
2023-02-02T00:42:26.374Z,100.00
2023-02-02T00:45:12.545Z,100.00
2023-02-02T00:47:40.677Z,100.00
2023-02-02T00:50:08.993Z,100.00
2023-02-02T00:52:50.069Z,100.00
2023-02-02T00:55:23.974Z,100.00
2023-02-02T00:57:52.130Z,100.00
2023-02-02T01:00:26.085Z,100.00
2023-02-02T01:02:55.098Z,100.00
2023-02-02T01:05:23.408Z,100.00
2023-02-02T01:07:51.190Z,100.00
2023-02-02T01:10:19.370Z,100.00
2023-02-02T01:12:46.480Z,100.00
2023-02-02T01:15:14.477Z,100.00
2023-02-02T01:17:42.123Z,100.00
2023-02-02T01:20:15.606Z,100.00
2023-02-02T01:22:48.488Z,100.00
2023-02-02T01:25:15.636Z,100.00
2023-02-02T01:27:43.381Z,100.00
2023-02-02T01:30:12.450Z,100.00
2023-02-02T01:32:39.941Z,100.00
2023-02-02T01:35:08.625Z,100.00
2023-02-02T01:37:35.881Z,100.00
2023-02-02T01:40:04.324Z,100.00
2023-02-02T01:42:31.336Z,100.00
2023-02-02T01:45:28.543Z,100.00
2023-02-02T01:48:00.029Z,100.00
2023-02-02T01:50:33.703Z,100.00
2023-02-02T01:53:03.816Z,100.00
2023-02-02T01:55:33.209Z,100.00
2023-02-02T01:58:23.125Z,100.00
2023-02-02T02:00:52.931Z,100.00
2023-02-02T02:03:25.864Z,100.00
2023-02-02T02:06:16.684Z,100.00
2023-02-02T02:09:04.821Z,100.00
2023-02-02T02:11:38.517Z,100.00
2023-02-02T02:14:29.356Z,98.82
2023-02-02T02:17:27.578Z,98.26
2023-02-02T02:20:50.890Z,97.37
2023-02-02T02:24:08.748Z,97.03
2023-02-02T02:26:51.907Z,96.12
2023-02-02T02:29:24.146Z,95.21
2023-02-02T02:31:57.207Z,95.35
2023-02-02T02:34:43.199Z,96.00
2023-02-02T02:37:16.333Z,95.69
2023-02-02T02:40:08.943Z,95.90
2023-02-02T02:42:45.645Z,95.65
2023-02-02T02:45:14.398Z,95.71
2023-02-02T02:47:43.689Z,94.71
2023-02-02T02:50:12.329Z,95.74
2023-02-02T02:52:41.673Z,96.39
2023-02-02T02:55:12.318Z,96.52
2023-02-02T02:57:52.560Z,96.18
2023-02-02T03:00:42.874Z,95.42
2023-02-02T03:03:19.036Z,94.67
2023-02-02T03:05:52.510Z,93.98
2023-02-02T03:08:29.131Z,94.57
2023-02-02T03:16:26.402Z,94.07
2023-02-02T03:18:58.051Z,94.02
2023-02-02T03:21:25.337Z,94.12
2023-02-02T03:23:52.733Z,93.09
2023-02-02T03:26:20.302Z,92.14
2023-02-02T03:28:50.632Z,92.72
2023-02-02T03:31:19.065Z,92.73
2023-02-02T03:33:46.181Z,91.61
2023-02-02T03:36:13.567Z,89.53
2023-02-02T03:38:41.016Z,90.78
2023-02-02T03:41:08.625Z,90.53
2023-02-02T03:43:35.878Z,89.82
2023-02-02T03:46:07.122Z,89.50
2023-02-02T03:48:39.694Z,88.70
2023-02-02T03:51:12.740Z,88.55
2023-02-02T03:53:48.024Z,89.11
2023-02-02T03:56:15.981Z,88.83
2023-02-02T03:58:43.176Z,89.30
2023-02-02T04:01:15.090Z,88.54
2023-02-02T04:03:50.924Z,87.66
2023-02-02T04:06:20.162Z,87.70
2023-02-02T04:08:47.393Z,87.54
2023-02-02T04:11:14.872Z,88.30
2023-02-02T04:13:46.042Z,87.72
2023-02-02T04:16:14.423Z,88.50
2023-02-02T04:18:41.851Z,89.04
2023-02-02T04:21:10.089Z,88.53
2023-02-02T04:23:37.707Z,89.15
2023-02-02T04:26:05.559Z,89.72
2023-02-02T04:28:32.835Z,90.44
2023-02-02T04:31:01.379Z,90.66
2023-02-02T04:33:28.956Z,90.30
2023-02-02T04:35:56.033Z,90.25
2023-02-02T04:38:23.580Z,90.62
2023-02-02T04:40:51.148Z,91.59
2023-02-02T04:43:24.044Z,91.29
2023-02-02T04:45:59.227Z,92.00
2023-02-02T04:48:28.672Z,92.26
2023-02-02T04:51:04.243Z,92.59
2023-02-02T04:53:32.558Z,92.22
2023-02-02T04:56:14.630Z,92.86
2023-02-02T04:58:43.946Z,93.58
2023-02-02T05:01:20.191Z,93.57
2023-02-02T05:03:48.802Z,93.17
2023-02-02T05:06:17.894Z,92.55
2023-02-02T05:08:51.649Z,92.32
2023-02-02T05:11:22.118Z,92.39
2023-02-02T05:13:54.303Z,92.59
2023-02-02T05:16:24.125Z,92.88
2023-02-02T05:18:54.054Z,93.51
2023-02-02T05:21:23.054Z,94.33
2023-02-02T05:23:50.501Z,95.56
2023-02-02T05:26:23.791Z,96.17
2023-02-02T05:28:51.136Z,96.71
2023-02-02T05:31:18.931Z,96.58
2023-02-02T05:33:48.680Z,95.46
2023-02-02T05:36:16.018Z,95.97
2023-02-02T05:38:49.607Z,97.48
2023-02-02T05:41:17.085Z,96.44
2023-02-02T05:43:44.487Z,96.17
2023-02-02T05:46:13.174Z,95.39
2023-02-02T05:48:40.370Z,94.01
2023-02-02T05:51:16.165Z,94.63
2023-02-02T05:53:45.362Z,95.44
2023-02-02T05:56:16.065Z,94.22
2023-02-02T05:58:44.772Z,93.51
2023-02-02T06:01:12.048Z,94.06
2023-02-02T06:03:41.791Z,93.95
2023-02-02T06:06:09.145Z,92.65
2023-02-02T06:08:38.497Z,92.45
2023-02-02T06:11:12.785Z,91.92
2023-02-02T06:13:41.234Z,90.80
2023-02-02T06:16:09.578Z,90.97
2023-02-02T06:18:43.192Z,90.88
2023-02-02T06:21:12.972Z,90.14
2023-02-02T06:23:46.167Z,90.40
2023-02-02T06:26:14.429Z,90.08
2023-02-02T06:28:43.603Z,90.87
2023-02-02T06:31:12.155Z,91.39
2023-02-02T06:33:40.700Z,91.52
2023-02-02T06:36:08.286Z,91.68
2023-02-02T06:38:35.596Z,91.86
2023-02-02T06:41:03.899Z,91.65
2023-02-02T06:43:31.608Z,91.00
2023-02-02T06:45:59.126Z,91.10
2023-02-02T06:48:27.678Z,90.74
2023-02-02T06:50:57.986Z,90.42
2023-02-02T06:53:26.924Z,90.84
2023-02-02T06:56:02.083Z,90.73
2023-02-02T06:58:31.262Z,90.55
2023-02-02T07:01:06.921Z,89.99
2023-02-02T07:03:34.931Z,90.96
2023-02-02T07:06:20.222Z,90.12
2023-02-02T07:09:02.312Z,90.88
2023-02-02T07:11:35.332Z,92.58
2023-02-02T07:14:08.616Z,93.07
2023-02-02T07:16:42.207Z,92.77
2023-02-02T07:19:09.919Z,92.80
2023-02-02T07:21:37.068Z,93.33
2023-02-02T07:24:06.157Z,93.91
2023-02-02T07:26:35.135Z,93.64
2023-02-02T07:29:04.823Z,94.31
2023-02-02T07:31:34.795Z,94.65
2023-02-02T07:34:03.099Z,94.54
2023-02-02T07:36:30.684Z,94.48
2023-02-02T07:39:05.384Z,94.68
2023-02-02T07:41:35.776Z,94.87
2023-02-02T07:44:06.276Z,94.29
2023-02-02T07:46:33.880Z,92.60
2023-02-02T07:49:01.155Z,93.40
2023-02-02T07:51:28.569Z,94.48
2023-02-02T07:53:58.706Z,95.58
2023-02-02T07:56:30.453Z,95.69
2023-02-02T07:58:58.333Z,96.71
2023-02-02T08:01:27.668Z,97.45
2023-02-02T08:03:59.384Z,99.54
2023-02-02T08:06:37.673Z,100.00
2023-02-02T08:09:09.011Z,100.00
2023-02-02T08:11:38.063Z,100.00
2023-02-02T08:14:05.591Z,100.00
2023-02-02T08:16:34.311Z,100.00
2023-02-02T08:19:01.819Z,100.00
2023-02-02T08:21:28.862Z,100.00
2023-02-02T08:23:57.533Z,100.00
2023-02-02T08:26:26.987Z,100.00
2023-02-02T08:28:59.811Z,99.94
2023-02-02T08:31:39.016Z,98.58
2023-02-02T08:34:06.724Z,98.94
2023-02-02T08:36:35.754Z,99.83
2023-02-02T08:39:05.133Z,100.00
2023-02-02T08:41:33.880Z,100.00
2023-02-02T08:44:00.953Z,100.00
2023-02-02T08:46:28.159Z,99.38
2023-02-02T08:48:55.410Z,98.00
2023-02-02T08:51:22.402Z,96.15
2023-02-02T08:53:49.867Z,95.45
2023-02-02T08:56:20.301Z,94.01
2023-02-02T08:58:54.952Z,92.87
2023-02-02T09:01:24.724Z,91.38
2023-02-02T09:04:06.880Z,90.58
2023-02-02T09:06:37.604Z,91.72
2023-02-02T09:09:07.083Z,91.81
2023-02-02T09:11:35.359Z,92.49
2023-02-02T09:14:03.416Z,93.08
2023-02-02T09:16:30.885Z,94.33
2023-02-02T09:18:58.403Z,94.41
2023-02-02T09:21:26.704Z,95.64
2023-02-02T09:23:55.128Z,97.56
2023-02-02T09:26:28.462Z,98.24
2023-02-02T09:28:58.062Z,98.93
2023-02-02T09:31:27.179Z,99.79
2023-02-02T09:33:54.635Z,99.21
2023-02-02T09:36:23.908Z,99.30
2023-02-02T09:38:53.377Z,98.87
2023-02-02T09:41:38.590Z,97.20
2023-02-02T09:44:18.337Z,95.60
2023-02-02T09:47:12.314Z,94.35
2023-02-02T09:50:36.680Z,94.20
2023-02-02T09:53:54.807Z,97.37
2023-02-02T09:56:46.301Z,100.00
2023-02-02T09:59:22.781Z,100.00
2023-02-02T10:01:55.724Z,100.00
2023-02-02T10:04:36.535Z,100.00
2023-02-02T10:07:31.419Z,100.00
2023-02-02T10:10:13.453Z,100.00
2023-02-02T10:13:03.235Z,100.00
2023-02-02T10:15:43.549Z,97.96
2023-02-02T10:18:41.266Z,91.82
2023-02-02T10:21:17.197Z,92.57
2023-02-02T10:23:46.348Z,94.41
2023-02-02T10:26:19.367Z,94.17
2023-02-02T10:29:03.201Z,91.87
2023-02-02T10:31:43.366Z,92.62
2023-02-02T10:34:15.965Z,95.44
2023-02-02T10:37:16.879Z,98.37
2023-02-02T10:40:04.110Z,100.00
2023-02-02T10:43:09.114Z,100.00
2023-02-02T10:45:39.299Z,96.14
2023-02-02T10:48:17.515Z,93.34
2023-02-02T10:50:54.611Z,90.49
2023-02-02T10:53:26.207Z,83.45
2023-02-02T10:56:07.287Z,82.34
2023-02-02T10:58:47.792Z,85.54
2023-02-02T11:01:18.484Z,88.43
2023-02-02T11:03:45.732Z,88.04
2023-02-02T11:06:32.642Z,87.76
2023-02-02T11:09:01.197Z,86.82
2023-02-02T11:11:38.697Z,84.46
2023-02-02T11:14:08.730Z,84.02
2023-02-02T11:16:44.264Z,82.88
2023-02-02T11:19:17.282Z,80.33
2023-02-02T11:21:54.884Z,84.05
2023-02-02T11:24:25.449Z,85.80
2023-02-02T11:27:00.208Z,85.48
2023-02-02T11:29:32.850Z,86.75
2023-02-02T11:32:33.227Z,87.28
2023-02-02T11:35:04.560Z,87.68
2023-02-02T11:37:37.050Z,88.89
2023-02-02T11:40:34.669Z,92.48
2023-02-02T11:43:44.568Z,94.51
2023-02-02T11:46:26.059Z,97.91
2023-02-02T11:49:08.672Z,100.00
2023-02-02T11:51:35.940Z,100.00
2023-02-02T11:54:08.167Z,100.00
2023-02-02T11:56:37.746Z,100.00
2023-02-02T11:59:06.351Z,100.00
2023-02-02T12:01:44.427Z,100.00
2023-02-02T12:04:17.652Z,100.00
2023-02-02T12:06:46.039Z,100.00
2023-02-02T12:09:17.428Z,100.00
2023-02-02T12:12:15.929Z,100.00
2023-02-02T12:15:04.781Z,100.00
2023-02-02T12:17:39.823Z,100.00
2023-02-02T12:20:18.736Z,100.00
2023-02-02T12:23:13.632Z,100.00
2023-02-02T12:26:13.072Z,100.00
2023-02-02T12:29:08.263Z,100.00
2023-02-02T12:31:38.704Z,100.00
2023-02-02T12:34:25.756Z,100.00
2023-02-02T12:37:05.098Z,100.00
2023-02-02T12:39:51.648Z,100.00
2023-02-02T12:42:52.930Z,100.00
2023-02-02T12:45:50.008Z,100.00
2023-02-02T12:48:40.795Z,100.00
2023-02-02T12:51:39.352Z,100.00
2023-02-02T12:54:51.884Z,100.00
2023-02-02T12:57:37.920Z,100.00
2023-02-02T13:00:27.213Z,100.00
2023-02-02T13:03:23.211Z,100.00
2023-02-02T13:08:42.223Z,100.00
2023-02-02T13:11:30.246Z,100.00
2023-02-02T13:14:14.142Z,100.00
2023-02-02T13:16:48.701Z,100.00
2023-02-02T13:19:43.084Z,100.00
2023-02-02T13:22:17.633Z,100.00
2023-02-02T13:24:48.462Z,100.00
2023-02-02T13:27:20.029Z,100.00
2023-02-02T13:30:00.412Z,100.00
2023-02-02T13:32:34.762Z,100.00
2023-02-02T13:35:20.872Z,100.00
2023-02-02T13:38:01.291Z,100.00
2023-02-02T13:40:32.858Z,100.00
2023-02-02T13:43:19.385Z,100.00
2023-02-02T13:46:14.870Z,100.00
2023-02-02T13:49:20.212Z,100.00
2023-02-02T13:51:57.377Z,100.00
2023-02-02T13:55:01.490Z,100.00
2023-02-02T13:57:36.616Z,100.00
2023-02-02T14:00:58.917Z,100.00
2023-02-02T14:03:40.382Z,100.00
2023-02-02T14:06:17.195Z,100.00
2023-02-02T14:08:49.544Z,100.00
2023-02-02T14:11:27.687Z,100.00
2023-02-02T14:14:18.254Z,100.00
2023-02-02T14:16:49.246Z,100.00
2023-02-02T14:19:41.495Z,100.00
2023-02-02T14:22:10.346Z,100.00
2023-02-02T14:24:42.595Z,100.00
2023-02-02T14:27:09.812Z,100.00
2023-02-02T14:29:57.317Z,100.00
2023-02-02T14:32:25.182Z,100.00
2023-02-02T14:35:11.202Z,100.00
2023-02-02T14:38:04.478Z,100.00
2023-02-02T14:41:00.658Z,100.00
2023-02-02T14:43:45.171Z,100.00
2023-02-02T14:46:15.881Z,100.00
2023-02-02T14:49:15.987Z,100.00
2023-02-02T14:51:53.406Z,100.00
2023-02-02T14:54:31.328Z,100.00
2023-02-02T14:57:28.952Z,100.00
2023-02-02T15:00:00.060Z,100.00
2023-02-02T15:02:36.347Z,100.00
2023-02-02T15:05:34.492Z,100.00
2023-02-02T15:08:26.801Z,100.00
2023-02-02T15:11:00.564Z,100.00
2023-02-02T15:13:37.884Z,100.00
2023-02-02T15:16:21.969Z,100.00
2023-02-02T15:19:15.059Z,100.00
2023-02-02T15:21:47.992Z,100.00
2023-02-02T15:24:27.458Z,100.00
2023-02-02T15:26:58.668Z,100.00
2023-02-02T15:29:38.328Z,100.00
2023-02-02T15:32:07.613Z,100.00
2023-02-02T15:34:47.361Z,100.00
2023-02-02T15:37:27.294Z,100.00
2023-02-02T15:39:58.351Z,100.00
2023-02-02T15:42:55.933Z,100.00
2023-02-02T15:45:29.719Z,100.00
2023-02-02T15:48:13.149Z,100.00
2023-02-02T15:50:46.674Z,100.00
2023-02-02T15:53:22.311Z,100.00
2023-02-02T15:55:57.917Z,100.00
2023-02-02T15:58:32.560Z,100.00
2023-02-02T16:01:15.021Z,100.00
2023-02-02T16:04:01.865Z,100.00
2023-02-02T16:06:30.432Z,100.00
2023-02-02T16:08:57.869Z,100.00
2023-02-02T16:11:25.155Z,100.00
2023-02-02T16:14:03.661Z,100.00
2023-02-02T16:16:38.950Z,100.00
2023-02-02T16:19:09.561Z,100.00
2023-02-02T16:21:42.681Z,100.00
2023-02-02T16:24:19.384Z,100.00
2023-02-02T16:26:46.799Z,100.00
2023-02-02T16:29:17.671Z,100.00
2023-02-02T16:31:47.365Z,100.00
2023-02-02T16:34:40.740Z,100.00
2023-02-02T16:37:12.365Z,100.00
2023-02-02T16:39:39.936Z,100.00
2023-02-02T16:42:29.252Z,100.00
2023-02-02T16:44:59.542Z,100.00
2023-02-02T16:47:36.171Z,100.00
2023-02-02T16:50:09.721Z,100.00
2023-02-02T16:52:57.459Z,100.00
2023-02-02T16:55:36.449Z,100.00
2023-02-02T16:58:22.187Z,100.00
2023-02-02T17:01:16.096Z,100.00
2023-02-02T17:03:55.536Z,100.00
2023-02-02T17:06:45.652Z,100.00
2023-02-02T17:09:36.249Z,100.00
2023-02-02T17:12:33.169Z,100.00
2023-02-02T17:15:19.383Z,100.00
2023-02-02T17:17:48.806Z,100.00
2023-02-02T17:20:24.211Z,100.00
2023-02-02T17:23:02.005Z,100.00
2023-02-02T17:25:35.588Z,100.00
2023-02-02T17:28:06.741Z,100.00
2023-02-02T17:30:36.370Z,100.00
2023-02-02T17:33:04.327Z,100.00
2023-02-02T17:35:47.238Z,100.00
2023-02-02T17:38:19.739Z,100.00
2023-02-02T17:40:47.847Z,100.00
2023-02-02T17:43:16.441Z,100.00
2023-02-02T17:45:46.221Z,100.00
2023-02-02T17:48:15.290Z,97.33
2023-02-02T17:50:44.216Z,93.94
2023-02-02T17:53:20.569Z,91.57
2023-02-02T17:55:51.744Z,91.42
2023-02-02T17:58:21.184Z,91.90
2023-02-02T18:00:54.305Z,92.31
2023-02-02T18:03:28.853Z,92.38
2023-02-02T18:06:00.894Z,90.86
2023-02-02T18:08:30.241Z,89.41
2023-02-02T18:10:59.660Z,90.19
2023-02-02T18:13:26.946Z,90.99
2023-02-02T18:15:56.470Z,89.17
2023-02-02T18:18:27.686Z,88.56
2023-02-02T18:21:01.651Z,88.14
2023-02-02T18:23:31.268Z,88.53
2023-02-02T18:26:12.700Z,88.48
2023-02-02T18:28:41.503Z,88.94
2023-02-02T18:31:14.178Z,87.91
2023-02-02T18:33:44.283Z,87.87
2023-02-02T18:36:14.928Z,87.46
2023-02-02T18:38:47.900Z,87.24
2023-02-02T18:41:18.799Z,88.10
2023-02-02T18:43:46.171Z,86.50
2023-02-02T18:46:16.052Z,84.96
2023-02-02T18:48:45.834Z,83.25
2023-02-02T18:51:16.910Z,83.28
2023-02-02T18:53:46.096Z,82.80
2023-02-02T18:56:15.652Z,83.36
2023-02-02T18:58:45.324Z,82.80
2023-02-02T19:01:19.050Z,82.17
2023-02-02T19:03:57.583Z,82.42
2023-02-02T19:06:45.563Z,81.83
2023-02-02T19:09:14.767Z,81.86
2023-02-02T19:11:45.356Z,81.86
2023-02-02T19:14:14.272Z,81.26
2023-02-02T19:16:44.052Z,81.25
2023-02-02T19:19:35.116Z,81.38
2023-02-02T19:22:38.025Z,81.04
2023-02-02T19:25:12.739Z,81.67
2023-02-02T19:27:41.872Z,81.96
2023-02-02T19:30:23.350Z,82.15
2023-02-02T19:32:51.585Z,82.34
2023-02-02T19:35:23.119Z,81.57
2023-02-02T19:37:57.281Z,82.18
2023-02-02T19:40:31.546Z,83.25
2023-02-02T19:43:27.910Z,83.58
2023-02-02T19:46:00.416Z,82.54
2023-02-02T19:48:35.698Z,82.73
2023-02-02T19:51:35.354Z,82.68
2023-02-02T19:54:03.832Z,82.64
2023-02-02T19:56:39.884Z,82.30
2023-02-02T19:59:19.588Z,82.48
2023-02-02T20:01:51.028Z,82.61
2023-02-02T20:04:20.280Z,81.34
2023-02-02T20:06:58.922Z,82.78
2023-02-02T20:09:35.158Z,81.85
2023-02-02T20:12:28.255Z,81.86
2023-02-02T20:14:57.680Z,81.92
2023-02-02T20:17:33.191Z,81.50
2023-02-02T20:20:00.721Z,80.80
2023-02-02T20:22:33.863Z,80.24
2023-02-02T20:25:07.076Z,80.94
2023-02-02T20:27:35.396Z,80.16
2023-02-02T20:30:25.517Z,79.31
2023-02-02T20:32:58.882Z,78.70
2023-02-02T20:35:56.557Z,78.52
2023-02-02T20:38:35.180Z,78.18
2023-02-02T20:41:08.868Z,77.68
2023-02-02T20:43:36.256Z,78.22
2023-02-02T20:46:04.080Z,77.78
2023-02-02T20:48:34.578Z,76.08
2023-02-02T20:51:02.355Z,76.75
2023-02-02T20:53:29.641Z,76.87
2023-02-02T20:56:00.097Z,75.92
2023-02-02T20:58:27.742Z,76.97
2023-02-02T21:04:20.318Z,75.12
2023-02-02T21:06:49.585Z,74.60
2023-02-02T21:09:18.764Z,73.90
2023-02-02T21:11:46.507Z,74.44
2023-02-02T21:14:15.251Z,74.50
2023-02-02T21:16:57.283Z,74.10
2023-02-02T21:19:29.719Z,73.00
2023-02-02T21:21:57.253Z,72.44
2023-02-02T21:24:25.765Z,73.02
2023-02-02T21:26:54.089Z,73.25
2023-02-02T21:29:25.660Z,74.14
2023-02-02T21:31:59.161Z,73.17
2023-02-02T21:34:29.662Z,73.54
2023-02-02T21:36:58.522Z,73.61
2023-02-02T21:39:35.636Z,73.71
2023-02-02T21:42:13.763Z,73.91
2023-02-02T21:44:54.000Z,74.84
2023-02-02T21:47:34.451Z,75.72
2023-02-02T21:50:19.989Z,77.21
2023-02-02T21:52:47.387Z,77.20
2023-02-02T21:55:34.892Z,78.20
2023-02-02T21:58:28.008Z,79.42
2023-02-02T22:01:02.797Z,81.19
2023-02-02T22:03:35.045Z,81.18
2023-02-02T22:06:18.222Z,82.06
2023-02-02T22:08:45.434Z,82.24
2023-02-02T22:11:29.744Z,82.67
2023-02-02T22:14:13.011Z,83.12
2023-02-02T22:16:45.562Z,83.75
2023-02-02T22:19:24.847Z,84.75
2023-02-02T22:21:53.016Z,85.48
2023-02-02T22:24:21.576Z,86.38
2023-02-02T22:26:49.258Z,88.20
2023-02-02T22:29:21.422Z,88.61
2023-02-02T22:31:48.741Z,88.92
2023-02-02T22:34:16.173Z,89.68
2023-02-02T22:36:43.627Z,90.07
2023-02-02T22:39:11.089Z,91.89
2023-02-02T22:41:38.449Z,92.73
2023-02-02T22:44:06.250Z,93.14
2023-02-02T22:46:33.466Z,93.49
2023-02-02T22:49:00.965Z,94.45
2023-02-02T22:51:28.355Z,94.81
2023-02-02T22:53:55.834Z,94.89
2023-02-02T22:56:23.288Z,94.46
2023-02-02T22:58:50.779Z,94.03
2023-02-02T23:01:18.192Z,94.13
2023-02-02T23:03:47.323Z,94.13
2023-02-02T23:06:14.732Z,94.56
2023-02-02T23:08:42.080Z,94.87
2023-02-02T23:11:11.799Z,95.18
2023-02-02T23:13:44.694Z,95.29
2023-02-02T23:16:12.223Z,95.53
2023-02-02T23:18:40.777Z,95.62
2023-02-02T23:21:10.134Z,95.81
2023-02-02T23:23:37.523Z,96.18
2023-02-02T23:26:04.606Z,96.17
2023-02-02T23:28:37.185Z,96.49
2023-02-02T23:31:04.726Z,96.77
2023-02-02T23:33:32.490Z,96.85
2023-02-02T23:36:00.135Z,96.60
2023-02-02T23:38:27.231Z,96.70
2023-02-02T23:40:54.407Z,96.49
2023-02-02T23:43:22.806Z,95.88
2023-02-02T23:45:51.369Z,96.23
2023-02-02T23:48:19.909Z,96.51
2023-02-02T23:51:07.173Z,96.37
2023-02-02T23:53:36.595Z,96.38
2023-02-02T23:56:03.738Z,95.87
2023-02-02T23:58:31.270Z,95.17
